FW7071 Weather Reports


Display with metric or nautical units.
time (UTC)temp
F
wind
direction
speed
MPH
gust
MPH
rain 1hr
in
rain 24hr
in
rain mn
in
humidity
%
barometer
mb
20210802180152 75 158 1.0 3.0 0.00 0.01 0.01 60 1017.8
20210802175650 75 50 2.0 2.0 0.00 0.01 0.01 59 1018.0
20210802175148 76 182 1.0 1.0 0.00 0.01 0.01 60 1017.9
20210802174646 78 153 0.0 0.0 0.00 0.01 0.01 58 1017.9
20210802174144 76 152 1.0 2.0 0.00 0.01 0.01 59 1018.0
20210802173643 77 118 0.0 1.0 0.00 0.01 0.01 61 1017.7
20210802173142 77 294 3.0 5.0 0.00 0.01 0.01 57 1018.0
20210802172639 77 168 4.0 6.0 0.00 0.01 0.01 60 1017.9
20210802172138 76 133 2.0 3.0 0.00 0.01 0.01 60 1017.9
20210802171639 75 186 2.0 3.0 0.00 0.01 0.01 61 1017.9
20210802171136 76 300 4.0 7.0 0.00 0.01 0.01 59 1017.8
20210802170636 76 335 5.0 6.0 0.00 0.01 0.01 57 1017.9
20210802170134 75 254 2.0 3.0 0.00 0.01 0.01 59 1017.6
20210802165632 75 27 3.0 6.0 0.00 0.01 0.01 62 1017.7
20210802165131 75 278 4.0 6.0 0.00 0.01 0.01 60 1017.7
20210802164627 74 310 7.0 11.0 0.00 0.01 0.01 64 1017.5
20210802164125 75 278 8.0 11.0 0.00 0.01 0.01 62 1017.8
20210802163623 74 218 3.0 5.0 0.00 0.01 0.01 63 1017.6
20210802163121 74 240 2.0 2.0 0.00 0.01 0.01 64 1017.7
20210802162622 73 282 4.0 7.0 0.00 0.01 0.01 65 1017.8
20210802162121 73 264 1.0 2.0 0.00 0.01 0.01 67 1018.0
20210802161619 73 39 6.0 7.0 0.00 0.01 0.01 70 1018.0
20210802161119 74 283 1.0 1.0 0.00 0.01 0.01 67 1017.8
20210802160617 74 233 3.0 3.0 0.00 0.01 0.01 64 1017.7
20210802160113 73 291 2.0 3.0 0.00 0.01 0.01 68 1017.7
20210802155612 72 160 4.0 5.0 0.00 0.01 0.01 68 1017.7
20210802155110 72 165 0.0 1.0 0.00 0.01 0.01 70 1017.9
20210802154609 71 147 7.0 13.0 0.00 0.01 0.01 71 1017.9
20210802154106 74 110 2.0 3.0 0.00 0.01 0.01 68 1017.9
20210802153605 72 136 1.0 1.0 0.00 0.01 0.01 69 1017.8
20210802153103 70 311 2.0 2.0 0.00 0.01 0.01 70 1018.1
20210802152602 71 92 2.0 2.0 0.00 0.01 0.01 70 1018.1
20210802152059 70 118 0.0 1.0 0.00 0.01 0.01 72 1017.9
20210802151557 70 259 1.0 2.0 0.00 0.01 0.01 72 1017.9
20210802151056 70 49 3.0 3.0 0.00 0.01 0.01 74 1017.6
20210802150554 70 302 4.0 5.0 0.00 0.01 0.01 73 1017.8
20210802150053 69 270 2.0 2.0 0.00 0.01 0.01 74 1017.8
20210802145551 69 6 1.0 2.0 0.00 0.01 0.01 78 1017.8
20210802145049 69 301 6.0 7.0 0.00 0.01 0.01 76 1017.8
20210802144549 69 321 2.0 2.0 0.00 0.01 0.01 76 1017.8
20210802144047 70 272 4.0 6.0 0.00 0.01 0.01 75 1017.7
20210802143547 70 237 3.0 5.0 0.00 0.01 0.01 76 1017.8
20210802143046 70 124 1.0 2.0 0.00 0.01 0.01 74 1017.6
20210802142544 69 257 5.0 6.0 0.00 0.01 0.01 76 1017.4
20210802142044 69 85 3.0 3.0 0.00 0.01 0.01 75 1017.5
20210802141542 69 70 2.0 2.0 0.00 0.01 0.01 77 1017.2
20210802141041 68 94 1.0 2.0 0.00 0.01 0.01 79 1017.3
20210802140540 68 288 2.0 3.0 0.00 0.01 0.01 80 1017.1
20210802140040 67 308 2.0 3.0 0.00 0.01 0.01 82 1017.2
20210802135539 68 262 3.0 5.0 0.00 0.01 0.01 81 1017.1
20210802135036 67 266 4.0 6.0 0.00 0.01 0.01 82 1017.1
20210802134535 67 275 4.0 5.0 0.00 0.01 0.01 82 1017.1
20210802134033 67 199 5.0 6.0 0.00 0.01 0.01 82 1017.0
20210802133533 68 265 2.0 3.0 0.00 0.01 0.01 83 1017.2
20210802133026 69 224 0.0 0.0 0.00 0.01 0.01 82 1017.0
20210802132525 68 106 1.0 2.0 0.00 0.01 0.01 83 1017.0
20210802132023 67 318 3.0 3.0 0.07 0.01 0.01 84 1017.1
20210802131523 66 180 2.0 3.0 0.07 0.01 0.01 86 1017.0
20210802131020 67 250 5.0 7.0 0.00 0.00 0.00 86 1017.2
20210802130516 66 7 2.0 2.0 0.00 0.00 0.00 87 1017.1
20210802130016 66 218 4.0 7.0 0.00 0.00 0.00 87 1017.1
20210802125514 66 332 1.0 1.0 0.00 0.00 0.00 88 1016.8
20210802125013 66 312 2.0 2.0 0.00 0.00 0.00 89 1017.0
20210802124509 65 124 1.0 2.0 0.00 0.00 0.00 91 1016.9
20210802124007 64 206 2.0 2.0 0.00 0.00 0.00 92 1016.9
20210802123506 64 248 2.0 2.0 0.00 0.00 0.00 93 1016.7
20210802123006 64 286 3.0 3.0 0.00 0.00 0.00 94 1016.8
20210802122503 63 277 5.0 7.0 0.00 0.00 0.00 94 1016.6
20210802121953 63 310 5.0 7.0 0.00 0.00 0.00 94 1016.7
20210802121450 63 318 3.0 5.0 0.00 0.00 0.00 94 1016.3
20210802120950 63 284 4.0 6.0 0.00 0.00 0.00 94 1016.5
20210802120448 63 306 3.0 3.0 0.00 0.00 0.00 94 1016.4
20210802115946 63 260 5.0 6.0 0.00 0.00 0.00 95 1016.2
20210802115445 62 264 5.0 6.0 0.00 0.00 0.00 95 1016.1
20210802114944 62 235 3.0 3.0 0.00 0.00 0.00 95 1016.2
20210802114441 62 253 2.0 2.0 0.00 0.00 0.00 96 1016.1
20210802113940 62 46 3.0 3.0 0.00 0.00 0.00 96 1016.1
20210802113440 61 216 2.0 3.0 0.00 0.00 0.00 97 1016.2
20210802112939 61 201 1.0 2.0 0.00 0.00 0.00 98 1015.8
20210802112438 60 190 1.0 1.0 0.00 0.00 0.00 99 1015.8
20210802111936 60 302 3.0 3.0 0.00 0.00 0.00 99 1015.5
20210802111432 59 251 1.0 1.0 0.00 0.00 0.00 99 1015.7
20210802110929 59 197 0.0 1.0 0.00 0.00 0.00 99 1015.8
20210802110425 59 201 1.0 1.0 0.00 0.00 0.00 99 1015.7
20210802105926 59 205 1.0 2.0 0.00 0.00 0.00 99 1015.5
20210802105423 58 251 0.0 0.0 0.00 0.00 0.00 99 1015.8
20210802104922 58 252 0.0 0.0 0.00 0.00 0.00 99 1015.9
20210802104419 58 212 0.0 0.0 0.00 0.00 0.00 99 1015.5
20210802103918 58 191 0.0 0.0 0.00 0.00 0.00 99 1015.4
20210802103416 58 309 1.0 1.0 0.00 0.00 0.00 99 1015.5
20210802102915 58 179 0.0 0.0 0.00 0.00 0.00 99 1015.2
20210802102414 58 228 1.0 1.0 0.00 0.00 0.00 99 1015.2
20210802101913 58 196 0.0 0.0 0.00 0.00 0.00 99 1015.1
20210802101412 58 189 0.0 0.0 0.00 0.00 0.00 99 1015.1
20210802100910 58 225 1.0 1.0 0.00 0.00 0.00 99 1015.2
20210802100409 58 197 1.0 2.0 0.00 0.00 0.00 99 1015.0
20210802095908 58 268 0.0 0.0 0.00 0.00 0.00 99 1014.9
20210802095406 58 201 0.0 1.0 0.00 0.00 0.00 99 1015.0
20210802094905 58 233 1.0 1.0 0.00 0.00 0.00 99 1014.7
20210802094403 57 189 0.0 0.0 0.00 0.00 0.00 99 1014.7
20210802093902 57 210 0.0 0.0 0.00 0.00 0.00 99 1014.4
20210802093402 58 207 0.0 0.0 0.00 0.00 0.00 99 1014.4
20210802092900 58 215 0.0 1.0 0.00 0.00 0.00 99 1014.6
20210802092359 57 190 0.0 0.0 0.00 0.00 0.00 99 1014.7
20210802091857 57 182 0.0 0.0 0.00 0.00 0.00 99 1014.5
20210802091356 57 181 0.0 0.0 0.00 0.00 0.00 99 1014.4
20210802090856 58 190 0.0 0.0 0.00 0.00 0.00 99 1014.6
20210802090354 58 206 1.0 2.0 0.00 0.00 0.00 99 1014.4
20210802085851 58 185 0.0 0.0 0.00 0.00 0.00 99 1014.2
20210802085350 58 208 0.0 1.0 0.00 0.00 0.00 99 1014.2
20210802084849 58 228 0.0 1.0 0.00 0.00 0.00 99 1014.0
20210802084349 58 222 1.0 1.0 0.00 0.00 0.00 99 1014.2
20210802083847 58 234 3.0 3.0 0.00 0.00 0.00 99 1014.1
20210802083343 58 245 2.0 2.0 0.00 0.00 0.00 99 1014.2
20210802082843 58 219 1.0 1.0 0.00 0.00 0.00 99 1013.9
20210802082341 58 222 1.0 1.0 0.00 0.00 0.00 99 1014.0
20210802081840 58 214 1.0 1.0 0.00 0.00 0.00 99 1014.1
20210802081339 58 223 1.0 1.0 0.00 0.00 0.00 99 1013.7
20210802080839 58 299 1.0 1.0 0.00 0.00 0.00 99 1013.8
20210802080338 58 210 1.0 1.0 0.00 0.00 0.00 99 1013.7
20210802075836 58 219 0.0 1.0 0.00 0.00 0.00 99 1013.8
20210802075336 58 211 1.0 1.0 0.00 0.00 0.00 99 1013.7
20210802074835 58 215 0.0 1.0 0.00 0.00 0.00 99 1013.6
20210802074333 58 221 1.0 1.0 0.00 0.00 0.00 99 1013.8
20210802073830 58 272 1.0 1.0 0.00 0.00 0.00 99 1013.8
20210802073328 59 218 0.0 0.0 0.00 0.00 0.00 99 1013.4
20210802072828 59 312 3.0 3.0 0.00 0.00 0.00 99 1013.5
20210802072327 59 218 2.0 2.0 0.00 0.00 0.00 99 1013.4
20210802071826 59 318 3.0 3.0 0.00 0.00 0.00 99 1013.3
20210802071323 59 222 1.0 2.0 0.00 0.00 0.00 99 1013.2
20210802070821 59 217 1.0 2.0 0.00 0.00 0.00 99 1013.1
20210802070318 59 220 2.0 2.0 0.00 0.00 0.00 99 1013.1
20210802065817 59 192 1.0 1.0 0.00 0.00 0.00 99 1013.2
20210802065316 59 233 1.0 1.0 0.00 0.00 0.00 99 1013.2
20210802064816 59 208 1.0 2.0 0.00 0.00 0.00 99 1013.0
20210802064316 59 179 3.0 3.0 0.00 0.00 0.00 99 1013.2
20210802063816 59 195 2.0 2.0 0.00 0.00 0.00 99 1013.3
20210802063314 59 198 2.0 2.0 0.00 0.00 0.00 99 1013.0
20210802062813 59 257 2.0 2.0 0.00 0.00 0.00 99 1013.1
20210802062312 59 217 1.0 1.0 0.00 0.00 0.00 99 1013.1
20210802061811 59 199 1.0 1.0 0.00 0.00 0.00 99 1013.4
20210802061306 59 204 1.0 1.0 0.00 0.00 0.00 99 1013.3
20210802060806 59 217 2.0 2.0 0.00 0.00 0.00 99 1013.2
20210802060304 59 316 3.0 3.0 0.00 0.00 0.00 99 1013.4
20210802055803 59 216 1.0 2.0 0.00 0.00 0.00 99 1013.4
20210802055305 59 232 0.0 0.0 0.00 0.00 0.00 99 1013.1
20210802054802 59 242 1.0 2.0 0.00 0.00 0.00 99 1013.3
20210802054300 60 200 0.0 1.0 0.00 0.00 0.00 99 1013.0
20210802053759 60 243 1.0 2.0 0.00 0.00 0.00 99 1013.2
20210802053256 60 258 1.0 1.0 0.00 0.00 0.00 99 1013.0
20210802052755 60 224 1.0 1.0 0.00 0.00 0.00 99 1013.2
20210802052255 60 234 1.0 1.0 0.00 0.00 0.00 99 1012.9
20210802051755 60 255 1.0 2.0 0.00 0.00 0.00 99 1013.0
20210802051254 60 198 2.0 2.0 0.00 0.00 0.00 99 1013.2
20210802050753 60 250 1.0 1.0 0.00 0.00 0.00 99 1013.2
20210802050252 60 255 1.0 2.0 0.00 0.00 0.00 99 1013.3
20210802045751 60 234 1.0 2.0 0.00 0.00 0.00 99 1013.3
20210802045251 60 260 2.0 2.0 0.00 0.00 0.00 99 1013.4
20210802044750 60 219 1.0 2.0 0.00 0.00 0.00 99 1013.5
20210802044249 60 228 3.0 3.0 0.00 0.00 0.00 99 1013.4
20210802043747 60 199 2.0 2.0 0.00 0.00 0.00 99 1013.3
20210802043245 61 191 1.0 1.0 0.00 0.00 0.00 99 1013.2
20210802042745 61 229 2.0 2.0 0.00 0.00 0.00 99 1013.3
20210802042243 61 193 0.0 1.0 0.00 0.00 0.00 99 1013.0
20210802041741 61 287 2.0 3.0 0.00 0.00 0.00 99 1013.2
20210802041240 61 240 2.0 2.0 0.00 0.00 0.00 99 1013.1
20210802040737 61 247 1.0 2.0 0.00 0.00 0.00 99 1013.3
20210802040237 61 208 1.0 1.0 0.00 0.00 0.00 99 1013.3
20210802035735 61 237 1.0 1.0 0.04 0.81 0.81 99 1013.3
20210802035234 61 225 1.0 2.0 0.04 0.81 0.81 99 1013.6
20210802034730 61 212 1.0 1.0 0.00 0.81 0.81 99 1013.1
20210802034228 61 233 1.0 1.0 0.00 0.81 0.81 99 1013.4
20210802033729 61 237 1.0 1.0 0.00 0.81 0.81 99 1013.2
20210802033224 61 199 0.0 0.0 0.00 0.81 0.81 99 1013.1
20210802032724 61 270 2.0 2.0 0.00 0.81 0.81 99 1013.2
20210802032224 61 234 0.0 1.0 0.00 0.81 0.81 99 1013.2
20210802031720 62 172 0.0 1.0 0.00 0.81 0.81 99 1013.3
20210802031219 62 240 1.0 2.0 0.00 0.81 0.81 99 1013.4
20210802030719 62 229 1.0 2.0 0.00 0.81 0.81 99 1013.4
20210802030217 62 317 2.0 2.0 0.00 0.81 0.81 99 1013.3
20210802025715 62 199 1.0 1.0 0.00 0.81 0.81 99 1013.4
20210802025212 62 296 0.0 0.0 0.00 0.81 0.81 99 1013.1
20210802024712 62 293 0.0 0.0 0.00 0.81 0.81 99 1013.3
20210802024210 62 175 0.0 0.0 0.00 0.81 0.81 99 1013.3
20210802023706 62 293 3.0 3.0 0.00 0.81 0.81 99 1013.2
20210802023206 62 244 1.0 2.0 0.00 0.81 0.81 99 1012.7
20210802022704 62 115 0.0 1.0 0.00 0.81 0.81 99 1012.5
20210802022204 62 185 0.0 0.0 0.00 0.81 0.81 99 1012.6
20210802021701 62 85 0.0 1.0 0.00 0.81 0.81 99 1012.5
20210802021201 61 89 1.0 1.0 0.00 0.81 0.81 99 1012.8
20210802020700 61 154 0.0 1.0 0.00 0.81 0.81 99 1012.8
20210802020158 61 150 1.0 1.0 0.00 0.81 0.81 99 1012.9
20210802015657 61 147 0.0 0.0 0.07 0.81 0.81 99 1013.1
20210802015154 61 281 1.0 1.0 0.07 0.81 0.81 99 1013.3
20210802014653 61 159 0.0 1.0 0.04 0.79 0.79 99 1013.2
20210802014152 61 165 0.0 0.0 0.11 0.79 0.79 99 1013.3
20210802013650 61 163 0.0 0.0 0.07 0.79 0.79 99 1013.6
20210802013148 61 283 0.0 0.0 0.00 0.78 0.78 99 1013.6
20210802012647 61 143 0.0 1.0 0.11 0.78 0.78 99 1013.6
20210802012146 61 307 1.0 2.0 0.18 0.77 0.77 99 1013.8
20210802011644 62 133 1.0 1.0 0.23 0.76 0.76 99 1013.5
20210802011142 62 33 2.0 3.0 0.42 0.74 0.74 99 1013.7
20210802010640 63 80 3.0 3.0 0.96 0.72 0.72 99 1013.5
20210802010140 64 86 1.0 1.0 1.03 0.66 0.66 98 1013.9
20210802005639 65 41 2.0 2.0 0.82 0.55 0.55 97 1013.7
20210802005136 65 176 0.0 0.0 0.82 0.48 0.48 96 1013.7
20210802004634 65 172 2.0 2.0 0.49 0.42 0.42 96 1013.7
20210802004134 66 39 1.0 2.0 0.07 0.35 0.35 99 1013.2
20210802003629 68 90 0.0 1.0 0.00 0.33 0.33 99 1013.0
20210802003127 68 150 0.0 1.0 0.00 0.33 0.33 99 1012.8
20210802002625 68 139 0.0 1.0 0.00 0.33 0.33 99 1012.5
20210802002123 68 56 0.0 0.0 0.00 0.33 0.33 99 1012.6
20210802001622 68 152 0.0 0.0 0.00 0.33 0.33 99 1012.7
20210802001121 68 127 0.0 0.0 0.00 0.33 0.33 99 1012.7
20210802000620 68 264 1.0 1.0 0.00 0.33 0.33 99 1012.4
20210802000118 68 158 0.0 0.0 0.00 0.33 0.33 99 1012.6
20210801235617 68 160 0.0 0.0 0.00 0.33 0.33 99 1012.4
20210801235115 68 150 0.0 0.0 0.00 0.33 0.33 99 1012.2
20210801234614 68 209 0.0 0.0 0.00 0.33 0.33 99 1012.1
20210801234113 68 209 0.0 0.0 0.00 0.33 0.33 98 1012.1
20210801233612 69 209 0.0 0.0 0.00 0.33 0.33 97 1012.2
20210801233111 69 233 0.0 0.0 0.00 0.33 0.33 96 1012.2
20210801232610 69 234 0.0 0.0 0.00 0.33 0.33 95 1012.2
20210801232109 70 239 0.0 0.0 0.00 0.33 0.33 95 1012.3
20210801231609 70 211 0.0 0.0 0.00 0.33 0.33 94 1012.2
20210801231109 70 211 0.0 0.0 0.00 0.33 0.33 93 1011.9
20210801230606 70 211 0.0 0.0 0.00 0.33 0.33 92 1011.9
20210801230105 71 211 0.0 1.0 0.00 0.33 0.33 91 1011.8
20210801225604 71 240 0.0 0.0 0.00 0.33 0.33 89 1011.8
20210801225103 71 180 0.0 0.0 0.00 0.33 0.33 91 1011.7
20210801224601 71 156 0.0 0.0 0.00 0.33 0.33 91 1011.7
20210801224101 71 301 2.0 2.0 0.00 0.33 0.33 92 1011.4
20210801223600 70 241 0.0 1.0 0.00 0.33 0.33 95 1011.1
20210801223058 70 174 1.0 1.0 0.00 0.33 0.33 97 1011.1
20210801222557 69 164 0.0 1.0 0.00 0.33 0.33 97 1011.7
20210801222056 69 157 0.0 0.0 0.00 0.33 0.33 98 1011.4
20210801221555 69 172 0.0 0.0 0.00 0.33 0.33 99 1011.5
20210801221053 69 162 0.0 0.0 0.00 0.33 0.33 99 1011.4
20210801220551 68 164 0.0 0.0 0.00 0.33 0.33 99 1011.5
20210801220050 68 158 0.0 0.0 0.00 0.33 0.33 99 1011.6
20210801215549 68 159 0.0 0.0 0.00 0.33 0.33 99 1011.8
20210801215046 68 164 0.0 0.0 0.00 0.33 0.33 99 1012.0
20210801214540 68 154 0.0 0.0 0.00 0.33 0.33 99 1011.9
20210801214039 68 153 0.0 0.0 0.00 0.33 0.33 99 1011.8
20210801213538 68 139 0.0 1.0 0.00 0.33 0.33 99 1011.8
20210801213036 68 227 0.0 0.0 0.00 0.33 0.33 99 1012.0
20210801212533 68 262 0.0 0.0 0.00 0.33 0.33 99 1012.1
20210801212032 68 262 0.0 0.0 0.04 0.33 0.33 99 1012.1
20210801211532 67 255 0.0 0.0 0.11 0.33 0.33 99 1012.3
20210801211031 67 288 3.0 3.0 0.54 0.33 0.33 99 1012.3
20210801210529 68 161 0.0 0.0 0.49 0.31 0.31 99 1012.5
20210801210028 68 164 0.0 0.0 0.07 0.24 0.24 99 1012.5
20210801205527 68 161 0.0 0.0 0.00 0.22 0.22 99 1012.3
20210801205025 68 162 0.0 0.0 0.00 0.22 0.22 99 1012.3
20210801204523 68 145 0.0 1.0 0.00 0.22 0.22 99 1012.2
20210801204021 68 159 0.0 0.0 0.00 0.22 0.22 99 1012.3
20210801203521 68 154 0.0 0.0 0.00 0.22 0.22 98 1012.5
20210801203021 69 145 0.0 0.0 0.00 0.22 0.22 97 1012.5
20210801202519 69 160 0.0 0.0 0.00 0.22 0.22 97 1012.4
20210801202018 69 173 0.0 0.0 0.00 0.22 0.22 97 1012.4
20210801201519 69 163 0.0 0.0 0.00 0.22 0.22 97 1012.4
20210801201016 69 155 0.0 0.0 0.00 0.22 0.22 97 1012.3
20210801200516 69 164 0.0 0.0 0.00 0.22 0.22 96 1012.2
20210801200016 69 170 0.0 0.0 0.00 0.22 0.22 97 1012.4
20210801195513 70 155 0.0 0.0 0.00 0.22 0.22 96 1012.5
20210801195012 70 164 0.0 0.0 0.00 0.22 0.22 95 1012.3
20210801194511 70 170 0.0 0.0 0.00 0.22 0.22 94 1012.5
20210801194005 70 159 0.0 0.0 0.00 0.22 0.22 94 1012.5
20210801193504 70 167 0.0 0.0 0.00 0.22 0.22 94 1012.4
20210801193003 70 120 0.0 0.0 0.00 0.22 0.22 95 1012.4
20210801192501 70 146 0.0 1.0 0.00 0.22 0.22 95 1012.7
20210801192000 70 174 0.0 0.0 0.00 0.22 0.22 95 1012.6
20210801191500 69 170 0.0 0.0 0.00 0.22 0.22 95 1012.6
20210801190959 69 210 0.0 0.0 0.00 0.22 0.22 96 1012.7
20210801190458 68 143 1.0 1.0 0.00 0.22 0.22 97 1012.8
20210801185956 68 232 1.0 2.0 0.00 0.22 0.22 98 1013.0
20210801185456 68 177 0.0 0.0 0.00 0.22 0.22 99 1012.9
20210801184954 68 286 1.0 1.0 0.00 0.22 0.22 99 1013.0
20210801184452 68 226 2.0 2.0 0.00 0.22 0.22 99 1013.0
20210801183951 68 167 0.0 0.0 0.00 0.22 0.22 99 1013.1
20210801183449 68 156 0.0 0.0 0.00 0.22 0.22 99 1013.5
20210801182949 67 222 1.0 1.0 0.00 0.22 0.22 99 1013.3
20210801182448 67 170 0.0 0.0 0.00 0.22 0.22 99 1013.3
20210801181946 67 175 0.0 0.0 0.00 0.22 0.22 99 1013.3
20210801181446 66 261 1.0 1.0 0.00 0.22 0.22 99 1013.6
20210801180944 66 287 1.0 1.0 0.00 0.22 0.22 99 1013.5
20210801180443 66 155 0.0 0.0 0.00 0.22 0.22 99 1013.3